logo
Search for airport 
image banner adimage banner adimage banner ad
image banner ad

LODN - Knittelfeld Lkh

Located in District Murtal, Austria

ICAO - , IATA -

Data provided by Airmate  

General information

Coordinates: N47°12'58" E14°49'12"
Elevation is 2146 feet MSL.
 
View others Airports in Styria

Operational data

Special qualification required
Current time UTC:
Current local time:
Weather at : LOXZ - Zeltweg ( 6 km )
METAR: LOXZ 171420Z 06007KT 030V100 9999 FEW050 27/18 Q1019 NOSIG
TAF: TAF LOXZ 171115Z 1712/1721 VRB03KT 9999 FEW040 SCT050 TEMPO 1712/1721 -SHRA FEW050CB SCT060 BKN300 TEMPO 1715/1718 4000 TSRA SCT040CB BKN050
View NOTAMs / SUP AIP / TFR affecting this airport [VIEW]
Communications frequencies: [VIEW]

Runways:

Airport contact information

Address: District Murtal Austria

Satellite view of LODN